createdAt,value
2018-05-14T00:01:46.541Z,3.37
2018-05-14T00:04:14.035Z,4.10
2018-05-14T00:06:42.285Z,6.27
2018-05-14T00:09:09.797Z,3.40
2018-05-14T00:11:37.268Z,3.33
2018-05-14T00:14:04.733Z,3.33
2018-05-14T00:16:32.241Z,2.77
2018-05-14T00:18:59.721Z,2.57
2018-05-14T00:21:27.982Z,3.47
2018-05-14T00:23:56.220Z,2.87
2018-05-14T00:26:23.717Z,3.30
2018-05-14T00:28:51.188Z,3.93
2018-05-14T00:31:19.453Z,4.10
2018-05-14T00:33:47.689Z,4.73
2018-05-14T00:36:15.162Z,7.50
2018-05-14T00:38:42.669Z,4.50
2018-05-14T00:41:10.181Z,5.10
2018-05-14T00:43:37.688Z,4.57
2018-05-14T00:46:05.177Z,4.07
2018-05-14T00:48:32.662Z,7.40
2018-05-14T00:51:00.125Z,4.87
2018-05-14T00:53:27.629Z,6.53
2018-05-14T00:55:55.109Z,8.00
2018-05-14T00:58:22.597Z,5.90
2018-05-14T01:00:50.867Z,6.70
2018-05-14T01:03:18.375Z,8.90
2018-05-14T01:05:45.849Z,7.53
2018-05-14T01:08:13.354Z,9.33
2018-05-14T01:10:40.826Z,7.43
2018-05-14T01:13:09.065Z,10.30
2018-05-14T01:15:36.553Z,8.90
2018-05-14T01:18:04.032Z,9.23
2018-05-14T01:20:32.302Z,9.13
2018-05-14T01:23:00.550Z,9.00
2018-05-14T01:25:28.087Z,8.27
2018-05-14T01:27:55.566Z,9.57
2018-05-14T01:30:23.061Z,11.73
2018-05-14T01:32:51.326Z,7.57
2018-05-14T01:35:18.829Z,8.07
2018-05-14T01:37:46.304Z,8.97
2018-05-14T01:40:13.804Z,8.90
2018-05-14T01:42:42.046Z,7.40
2018-05-14T01:45:09.541Z,9.13
2018-05-14T01:47:37.777Z,8.10
2018-05-14T01:50:05.270Z,8.90
2018-05-14T01:52:32.744Z,9.97
2018-05-14T01:55:01.063Z,9.20
2018-05-14T01:57:28.525Z,9.60
2018-05-14T01:59:56.011Z,9.93
2018-05-14T02:02:23.528Z,10.33
2018-05-14T02:04:51.049Z,8.33
2018-05-14T02:07:19.294Z,9.80
2018-05-14T02:09:46.774Z,11.00
2018-05-14T02:12:14.285Z,9.47
2018-05-14T02:14:41.749Z,8.47
2018-05-14T02:17:09.253Z,10.73
2018-05-14T02:19:36.713Z,8.30
2018-05-14T02:22:04.973Z,8.53
2018-05-14T02:24:33.212Z,11.47
2018-05-14T02:27:00.743Z,10.07
2018-05-14T02:29:29.012Z,8.63
2018-05-14T02:31:57.297Z,9.53
2018-05-14T02:34:25.557Z,10.17
2018-05-14T02:36:53.800Z,9.83
2018-05-14T02:39:21.300Z,9.70
2018-05-14T02:41:49.556Z,9.30
2018-05-14T02:44:17.055Z,9.30
2018-05-14T02:46:44.534Z,10.97
2018-05-14T02:49:12.030Z,14.77
2018-05-14T02:51:39.502Z,12.77
2018-05-14T02:54:07.765Z,10.50
2018-05-14T02:56:35.242Z,13.20
2018-05-14T02:59:03.524Z,10.00
2018-05-14T03:01:31.762Z,13.47
2018-05-14T03:03:59.248Z,13.97
2018-05-14T03:06:27.512Z,13.03
2018-05-14T03:08:55.039Z,10.90
2018-05-14T03:11:22.510Z,12.63
2018-05-14T03:13:50.006Z,13.13
2018-05-14T03:16:18.265Z,14.73
2018-05-14T03:18:46.065Z,14.17
2018-05-14T03:21:13.581Z,14.03
2018-05-14T03:23:41.043Z,16.20
2018-05-14T03:26:08.556Z,14.93
2018-05-14T03:28:36.053Z,12.73
2018-05-14T03:31:03.574Z,17.43
2018-05-14T03:33:31.064Z,12.80
2018-05-14T03:35:58.541Z,14.27
2018-05-14T03:38:26.033Z,15.73
2018-05-14T03:40:53.540Z,13.00
2018-05-14T03:43:21.029Z,11.80
2018-05-14T03:45:48.509Z,13.80
2018-05-14T03:48:16.017Z,15.77
2018-05-14T03:50:43.493Z,12.60
2018-05-14T03:53:11.774Z,11.30
2018-05-14T03:55:39.267Z,12.13
2018-05-14T03:58:07.628Z,11.57
2018-05-14T04:00:47.925Z,11.17
2018-05-14T04:03:27.286Z,10.80
2018-05-14T04:06:06.577Z,12.40
2018-05-14T04:08:34.090Z,13.97
2018-05-14T04:11:01.579Z,13.97
2018-05-14T04:13:29.841Z,13.70
2018-05-14T04:15:57.333Z,15.03
2018-05-14T04:18:24.833Z,13.63
2018-05-14T04:20:52.307Z,14.07
2018-05-14T04:23:19.819Z,12.50
2018-05-14T04:25:47.325Z,17.50
2018-05-14T04:28:15.607Z,15.00
2018-05-14T04:30:43.133Z,14.60
2018-05-14T04:33:10.666Z,15.40
2018-05-14T04:35:38.150Z,15.93
2018-05-14T04:38:05.641Z,12.53
2018-05-14T04:40:33.168Z,11.70
2018-05-14T04:43:00.632Z,16.20
2018-05-14T04:45:28.129Z,16.07
2018-05-14T04:47:56.398Z,13.60
2018-05-14T04:50:23.918Z,13.57
2018-05-14T04:52:51.400Z,12.17
2018-05-14T04:55:18.901Z,12.40
2018-05-14T04:57:46.391Z,16.90
2018-05-14T05:00:13.909Z,13.57
2018-05-14T05:02:42.153Z,14.77
2018-05-14T05:05:09.672Z,17.57
2018-05-14T05:07:37.165Z,14.60
2018-05-14T05:10:04.661Z,11.77
2018-05-14T05:12:33.080Z,16.03
2018-05-14T05:15:00.585Z,17.43
2018-05-14T05:17:28.069Z,16.90
2018-05-14T05:19:56.305Z,22.13
2018-05-14T05:22:23.810Z,15.10
2018-05-14T05:24:52.042Z,14.37
2018-05-14T05:27:19.530Z,18.70
2018-05-14T05:29:47.780Z,15.80
2018-05-14T05:32:15.282Z,13.83
2018-05-14T05:34:43.520Z,15.90
2018-05-14T05:37:11.027Z,14.80
2018-05-14T05:39:38.539Z,13.20
2018-05-14T05:42:06.067Z,10.07
2018-05-14T05:44:33.582Z,13.57
2018-05-14T05:47:01.844Z,11.33
2018-05-14T05:49:30.129Z,13.53
2018-05-14T05:51:58.390Z,10.90
2018-05-14T05:54:25.901Z,8.00
2018-05-14T05:56:53.400Z,11.63
2018-05-14T05:59:20.920Z,9.50
2018-05-14T06:01:48.398Z,9.23
2018-05-14T06:04:15.904Z,9.27
2018-05-14T06:06:44.152Z,9.80
2018-05-14T06:09:11.650Z,10.90
2018-05-14T06:11:39.937Z,11.70
2018-05-14T06:14:07.443Z,10.30
2018-05-14T06:16:34.938Z,8.30
2018-05-14T06:19:03.241Z,8.20
2018-05-14T06:21:30.710Z,9.90
2018-05-14T06:23:58.239Z,8.27
2018-05-14T06:26:26.512Z,11.07
2018-05-14T06:28:54.778Z,9.80
2018-05-14T06:31:23.064Z,12.67
2018-05-14T06:33:51.306Z,10.10
2018-05-14T06:36:18.819Z,12.50
2018-05-14T06:38:46.677Z,11.90
2018-05-14T06:41:14.801Z,11.10
2018-05-14T06:43:42.302Z,16.47
2018-05-14T06:46:10.584Z,13.53
2018-05-14T06:48:38.819Z,14.33
2018-05-14T06:51:06.306Z,12.00
2018-05-14T06:53:34.544Z,15.03
2018-05-14T06:56:02.065Z,12.33
2018-05-14T06:58:29.570Z,13.33
2018-05-14T07:00:57.072Z,12.23
2018-05-14T07:03:25.354Z,11.43
2018-05-14T07:05:53.611Z,13.10
2018-05-14T07:08:21.896Z,11.60
2018-05-14T07:10:50.145Z,9.83
2018-05-14T07:13:17.654Z,12.27
2018-05-14T07:15:45.114Z,8.60
2018-05-14T07:18:12.627Z,8.50
2018-05-14T07:20:40.107Z,10.43
2018-05-14T07:23:08.389Z,9.37
2018-05-14T07:25:36.659Z,10.37
2018-05-14T07:28:04.901Z,8.70
2018-05-14T07:30:32.384Z,9.07
2018-05-14T07:32:59.867Z,8.97
2018-05-14T07:35:27.389Z,8.47
2018-05-14T07:37:54.847Z,7.87
2018-05-14T07:40:22.353Z,9.13
2018-05-14T07:42:49.824Z,8.77
2018-05-14T07:45:17.321Z,7.77
2018-05-14T07:47:44.849Z,9.70
2018-05-14T07:50:12.354Z,9.73
2018-05-14T07:52:41.345Z,11.17
2018-05-14T07:55:08.842Z,11.80
2018-05-14T07:57:36.326Z,10.20
2018-05-14T08:00:03.822Z,12.33
2018-05-14T08:02:32.049Z,9.23
2018-05-14T08:04:59.582Z,10.90
2018-05-14T08:07:27.854Z,15.17
2018-05-14T08:09:56.082Z,13.23
2018-05-14T08:12:23.592Z,9.27
2018-05-14T08:14:51.831Z,13.30
2018-05-14T08:17:19.337Z,13.30
2018-05-14T08:19:46.808Z,12.10
2018-05-14T08:22:14.309Z,13.27
2018-05-14T08:24:42.564Z,12.87
2018-05-14T08:27:10.078Z,15.00
2018-05-14T08:29:38.332Z,11.33
2018-05-14T08:32:05.840Z,12.23
2018-05-14T08:34:33.297Z,13.23
2018-05-14T08:37:00.909Z,13.63
2018-05-14T08:39:29.065Z,14.93
2018-05-14T08:41:56.553Z,15.60
2018-05-14T08:44:24.837Z,13.40
2018-05-14T08:46:53.495Z,16.37
2018-05-14T08:49:20.956Z,15.33
2018-05-14T08:51:48.432Z,16.53
2018-05-14T08:54:16.815Z,15.67
2018-05-14T08:56:44.181Z,14.97
2018-05-14T08:59:12.485Z,20.40
2018-05-14T09:01:39.945Z,17.97
2018-05-14T09:04:07.453Z,16.60
2018-05-14T09:06:34.921Z,17.90
2018-05-14T09:09:03.201Z,15.03
2018-05-14T09:11:31.451Z,18.67
2018-05-14T09:13:58.937Z,21.93
2018-05-14T09:16:27.201Z,20.40
2018-05-14T09:18:54.721Z,18.93
2018-05-14T09:21:22.239Z,22.43
2018-05-14T09:23:50.470Z,18.93
2018-05-14T09:26:17.985Z,15.60
2018-05-14T09:28:46.225Z,15.47
2018-05-14T09:31:13.728Z,16.70
2018-05-14T09:33:41.249Z,18.70
2018-05-14T09:36:08.774Z,17.23
2018-05-14T09:38:36.275Z,16.40
2018-05-14T09:41:03.774Z,16.07
2018-05-14T09:43:31.329Z,15.10
2018-05-14T09:45:58.799Z,15.40
2018-05-14T09:48:26.319Z,16.83
2018-05-14T09:50:54.556Z,17.90
2018-05-14T09:53:22.060Z,14.20
2018-05-14T09:55:50.333Z,17.50
2018-05-14T09:58:18.617Z,17.73
2018-05-14T10:00:46.858Z,16.53
2018-05-14T10:03:14.348Z,19.87
2018-05-14T10:05:42.585Z,16.90
2018-05-14T10:08:10.066Z,19.57
2018-05-14T10:10:37.570Z,22.00
2018-05-14T10:13:05.072Z,21.37
2018-05-14T10:15:32.551Z,19.10
2018-05-14T10:18:00.789Z,20.57
2018-05-14T10:20:28.291Z,18.60
2018-05-14T10:22:56.788Z,16.57
2018-05-14T10:25:24.844Z,18.33
2018-05-14T10:27:53.077Z,22.20
2018-05-14T10:30:20.603Z,17.47
2018-05-14T10:32:48.120Z,19.83
2018-05-14T10:35:15.610Z,18.57
2018-05-14T10:37:43.073Z,14.67
2018-05-14T10:40:10.586Z,17.57
2018-05-14T10:42:38.088Z,16.87
2018-05-14T10:45:06.383Z,18.43
2018-05-14T10:47:33.870Z,20.33
2018-05-14T10:50:01.363Z,20.73
2018-05-14T10:52:29.637Z,20.90
2018-05-14T10:54:57.890Z,21.53
2018-05-14T10:57:25.366Z,19.73
2018-05-14T10:59:52.874Z,19.40
2018-05-14T11:02:21.061Z,19.07
2018-05-14T11:04:48.529Z,20.07
2018-05-14T11:07:16.037Z,20.83
2018-05-14T11:09:44.293Z,22.60
2018-05-14T11:12:11.803Z,20.03
2018-05-14T11:14:39.273Z,22.73
2018-05-14T11:17:06.773Z,20.00
2018-05-14T11:19:35.050Z,19.00
2018-05-14T11:22:03.368Z,22.30
2018-05-14T11:24:30.877Z,23.03
2018-05-14T11:26:58.393Z,23.23
2018-05-14T11:29:25.906Z,24.40
2018-05-14T11:31:53.402Z,22.87
2018-05-14T11:34:20.873Z,23.33
2018-05-14T11:36:48.389Z,23.37
2018-05-14T11:39:16.646Z,21.70
2018-05-14T11:41:44.143Z,24.00
2018-05-14T11:44:11.682Z,24.93
2018-05-14T11:46:39.939Z,23.00
2018-05-14T11:49:07.421Z,27.70
2018-05-14T11:51:35.677Z,27.47
2018-05-14T11:54:03.181Z,24.10
2018-05-14T11:56:30.649Z,23.53
2018-05-14T11:58:58.161Z,29.63
2018-05-14T12:01:25.643Z,25.60
2018-05-14T12:03:53.935Z,28.30
2018-05-14T12:06:21.405Z,26.83
2018-05-14T12:08:48.901Z,26.00
2018-05-14T12:11:16.380Z,27.50
2018-05-14T12:13:44.681Z,29.90
2018-05-14T12:16:12.235Z,27.80
2018-05-14T12:18:39.659Z,24.70
2018-05-14T12:21:07.928Z,24.37
2018-05-14T12:23:35.392Z,26.83
2018-05-14T12:26:02.889Z,25.10
2018-05-14T12:28:30.349Z,25.50
2018-05-14T12:30:57.850Z,23.40
2018-05-14T12:33:25.321Z,26.43
2018-05-14T12:35:52.809Z,26.80
2018-05-14T12:38:21.042Z,24.00
2018-05-14T12:40:48.541Z,24.67
2018-05-14T12:43:16.804Z,23.27
2018-05-14T12:45:44.312Z,27.20
2018-05-14T12:48:11.812Z,23.53
2018-05-14T12:50:39.292Z,20.60
2018-05-14T12:53:07.534Z,18.83
2018-05-14T12:55:35.025Z,19.40
2018-05-14T12:58:03.284Z,21.07
2018-05-14T13:00:30.764Z,21.17
2018-05-14T13:02:59.035Z,20.73
2018-05-14T13:05:27.270Z,17.80
2018-05-14T13:07:54.783Z,19.10
2018-05-14T13:10:23.046Z,16.47
2018-05-14T13:12:50.544Z,16.43
2018-05-14T13:15:18.024Z,24.37
2018-05-14T13:17:45.540Z,23.17
2018-05-14T13:20:13.777Z,18.97
2018-05-14T13:22:41.278Z,19.40
2018-05-14T13:25:08.792Z,18.53
2018-05-14T13:27:36.265Z,21.73
2018-05-14T13:30:03.761Z,19.27
2018-05-14T13:32:31.258Z,19.77
2018-05-14T13:34:58.750Z,20.77
2018-05-14T13:37:26.279Z,20.93
2018-05-14T13:39:53.776Z,24.40
2018-05-14T13:42:22.022Z,25.00
2018-05-14T13:44:49.526Z,24.63
2018-05-14T13:47:17.026Z,19.47
2018-05-14T13:49:44.545Z,24.83
2018-05-14T13:52:12.043Z,26.27
2018-05-14T13:54:39.573Z,20.73
2018-05-14T13:57:07.048Z,19.80
2018-05-14T13:59:34.529Z,19.40
2018-05-14T14:02:02.025Z,20.77
2018-05-14T14:04:30.269Z,22.17
2018-05-14T14:06:57.768Z,19.97
2018-05-14T14:09:26.017Z,29.80
2018-05-14T14:11:53.511Z,22.03
2018-05-14T14:14:21.002Z,21.07
2018-05-14T14:16:48.497Z,20.13
2018-05-14T14:19:16.015Z,20.77
2018-05-14T14:21:43.527Z,22.67
2018-05-14T14:24:11.826Z,21.90
2018-05-14T14:26:39.323Z,22.10
2018-05-14T14:29:06.803Z,23.60
2018-05-14T14:31:34.304Z,24.17
2018-05-14T14:34:01.833Z,24.83
2018-05-14T14:36:29.481Z,24.27
2018-05-14T14:38:57.585Z,28.10
2018-05-14T14:41:25.830Z,24.00
2018-05-14T14:43:53.322Z,28.23
2018-05-14T14:46:21.641Z,25.57
2018-05-14T14:48:49.082Z,23.80
2018-05-14T14:51:16.561Z,26.37
2018-05-14T14:53:44.061Z,24.63
2018-05-14T14:56:12.323Z,24.43
2018-05-14T14:58:39.827Z,24.33
2018-05-14T15:01:07.309Z,21.47
2018-05-14T15:03:34.823Z,23.37
2018-05-14T15:06:03.116Z,23.73
2018-05-14T15:08:30.935Z,24.37
2018-05-14T15:10:58.413Z,22.70
2018-05-14T15:13:26.696Z,22.60
2018-05-14T15:15:54.966Z,22.47
2018-05-14T15:18:22.575Z,24.00
2018-05-14T15:20:50.059Z,22.80
2018-05-14T15:23:17.521Z,26.93
2018-05-14T15:25:45.033Z,25.10
2018-05-14T15:28:12.530Z,27.50
2018-05-14T15:30:40.034Z,23.77
2018-05-14T15:33:08.321Z,28.33
2018-05-14T15:35:36.591Z,28.90
2018-05-14T15:38:04.834Z,28.80
2018-05-14T15:40:32.329Z,30.80
2018-05-14T15:43:00.564Z,30.80
2018-05-14T15:45:28.080Z,34.93
2018-05-14T15:47:55.577Z,30.83
2018-05-14T15:50:23.064Z,35.10
2018-05-14T15:52:51.342Z,31.60
2018-05-14T15:55:19.602Z,34.83
2018-05-14T15:57:47.102Z,33.47
2018-05-14T16:00:14.639Z,34.17
2018-05-14T16:02:42.889Z,38.30
2018-05-14T16:05:10.420Z,30.80
2018-05-14T16:07:37.943Z,41.80
2018-05-14T16:10:06.181Z,34.93
2018-05-14T16:12:33.763Z,28.83
2018-05-14T16:15:01.230Z,29.00
2018-05-14T16:17:29.480Z,30.17
2018-05-14T16:19:57.779Z,25.60
2018-05-14T16:22:25.289Z,27.63
2018-05-14T16:24:52.803Z,26.30
2018-05-14T16:27:21.089Z,28.63
2018-05-14T16:29:49.366Z,25.40
2018-05-14T16:32:17.661Z,24.03
2018-05-14T16:34:45.612Z,25.10
2018-05-14T16:37:13.882Z,23.67
2018-05-14T16:39:42.173Z,27.50
2018-05-14T16:42:10.405Z,23.00
2018-05-14T16:44:37.905Z,23.50
2018-05-14T16:47:05.414Z,26.17
2018-05-14T16:49:32.982Z,22.70
2018-05-14T16:52:00.458Z,25.27
2018-05-14T16:54:27.988Z,26.30
2018-05-14T16:56:55.453Z,26.13
2018-05-14T16:59:22.926Z,26.87
2018-05-14T17:01:50.431Z,24.50
2018-05-14T17:04:17.912Z,24.80
2018-05-14T17:06:45.422Z,25.30
2018-05-14T17:09:13.684Z,29.87
2018-05-14T17:11:41.941Z,26.40
2018-05-14T17:14:09.439Z,29.43
2018-05-14T17:16:37.697Z,23.90
2018-05-14T17:19:05.216Z,27.33
2018-05-14T17:21:32.709Z,29.13
2018-05-14T17:24:01.743Z,28.70
2018-05-14T17:26:29.301Z,29.37
2018-05-14T17:28:57.548Z,27.90
2018-05-14T17:31:25.053Z,28.13
2018-05-14T17:33:52.552Z,27.40
2018-05-14T17:36:20.086Z,28.57
2018-05-14T17:38:47.573Z,27.57
2018-05-14T17:41:16.619Z,30.90
2018-05-14T17:43:44.108Z,31.37
2018-05-14T17:46:11.631Z,29.93
2018-05-14T17:48:39.112Z,29.23
2018-05-14T17:51:06.632Z,30.10
2018-05-14T17:53:34.878Z,31.63
2018-05-14T17:56:02.399Z,34.23
2018-05-14T17:58:29.901Z,33.67
2018-05-14T18:00:57.385Z,34.30
2018-05-14T18:03:25.647Z,46.30
2018-05-14T18:05:54.616Z,42.00
2018-05-14T18:08:22.103Z,36.47
2018-05-14T18:10:49.618Z,42.17
2018-05-14T18:13:17.095Z,44.63
2018-05-14T18:15:44.556Z,44.37
2018-05-14T18:18:12.068Z,40.23
2018-05-14T18:20:40.388Z,38.23
2018-05-14T18:23:07.882Z,43.30
2018-05-14T18:25:41.896Z,43.50
2018-05-14T18:28:15.086Z,42.23
2018-05-14T18:30:45.962Z,42.67
2018-05-14T18:33:13.462Z,46.00
2018-05-14T18:35:56.566Z,40.90
2018-05-14T18:38:24.078Z,42.07
2018-05-14T18:40:52.346Z,38.60
2018-05-14T18:43:20.639Z,40.87
2018-05-14T18:45:48.106Z,40.43
2018-05-14T18:48:15.613Z,40.00
2018-05-14T18:50:43.126Z,38.47
2018-05-14T18:53:10.613Z,45.60
2018-05-14T18:55:38.133Z,37.07
2018-05-14T18:58:06.381Z,37.13
2018-05-14T19:00:33.901Z,36.20
2018-05-14T19:03:01.376Z,40.27
2018-05-14T19:05:28.882Z,47.73
2018-05-14T19:07:57.125Z,40.93
2018-05-14T19:10:31.970Z,40.23
2018-05-14T19:13:00.241Z,37.93
2018-05-14T19:15:34.209Z,45.80
2018-05-14T19:18:01.694Z,38.07
2018-05-14T19:20:29.212Z,37.57
2018-05-14T19:23:02.350Z,42.10
2018-05-14T19:25:29.823Z,42.13
2018-05-14T19:28:03.815Z,39.70
2018-05-14T19:30:31.317Z,36.43
2018-05-14T19:32:59.572Z,38.00
2018-05-14T19:38:30.078Z,52.90
2018-05-14T19:40:57.596Z,41.10
2018-05-14T19:43:25.881Z,43.07
2018-05-14T19:45:53.358Z,45.47
2018-05-14T19:48:20.889Z,47.97
2018-05-14T19:50:49.141Z,54.23
2018-05-14T19:53:16.657Z,48.13
2018-05-14T19:55:44.131Z,48.80
2018-05-14T19:58:11.667Z,46.87
2018-05-14T20:00:39.154Z,54.23
2018-05-14T20:03:06.680Z,53.97
2018-05-14T20:05:34.154Z,53.40
2018-05-14T20:08:01.633Z,56.33
2018-05-14T20:10:29.139Z,54.73
2018-05-14T20:12:57.395Z,59.83
2018-05-14T20:15:24.891Z,53.10
2018-05-14T20:17:52.395Z,54.20
2018-05-14T20:20:19.933Z,54.00
2018-05-14T20:22:47.436Z,55.53
2018-05-14T20:25:14.955Z,56.40
2018-05-14T20:27:42.450Z,53.07
2018-05-14T20:30:10.753Z,50.20
2018-05-14T20:32:39.000Z,47.97
2018-05-14T20:35:06.490Z,44.23
2018-05-14T20:37:33.983Z,45.63
2018-05-14T20:40:01.482Z,44.77
2018-05-14T20:42:29.750Z,44.00
2018-05-14T20:44:57.240Z,46.00
2018-05-14T20:47:24.764Z,39.60
2018-05-14T20:49:52.281Z,44.53
2018-05-14T20:52:19.795Z,37.73
2018-05-14T20:54:48.050Z,35.70
2018-05-14T20:57:15.572Z,41.93
2018-05-14T20:59:43.201Z,37.03
2018-05-14T21:02:11.384Z,41.33
2018-05-14T21:04:39.621Z,49.03
2018-05-14T21:07:07.926Z,48.43
2018-05-14T21:09:37.013Z,38.93
2018-05-14T21:12:04.510Z,44.40
2018-05-14T21:14:31.982Z,44.83
2018-05-14T21:16:59.490Z,38.30
2018-05-14T21:19:27.003Z,33.90
2018-05-14T21:21:54.605Z,27.40
2018-05-14T21:24:22.861Z,32.37
2018-05-14T21:26:50.387Z,31.20
2018-05-14T21:29:17.876Z,25.37
2018-05-14T21:31:45.376Z,28.90
2018-05-14T21:34:13.648Z,24.83
2018-05-14T21:36:41.893Z,22.60
2018-05-14T21:39:09.420Z,24.07
2018-05-14T21:41:36.904Z,28.83
2018-05-14T21:44:04.393Z,18.80
2018-05-14T21:46:31.925Z,16.50
2018-05-14T21:48:59.406Z,17.83
2018-05-14T21:51:26.927Z,17.33
2018-05-14T21:53:54.426Z,16.63
2018-05-14T21:56:21.953Z,18.07
2018-05-14T21:58:49.456Z,21.40
2018-05-14T22:01:17.696Z,13.90
2018-05-14T22:03:45.195Z,17.40
2018-05-14T22:06:14.262Z,17.07
2018-05-14T22:08:41.742Z,15.70
2018-05-14T22:11:10.015Z,14.07
2018-05-14T22:13:38.272Z,13.43
2018-05-14T22:16:05.769Z,14.80
2018-05-14T22:18:34.056Z,15.23
2018-05-14T22:21:02.299Z,12.97
2018-05-14T22:23:29.805Z,14.93
2018-05-14T22:25:57.292Z,12.20
2018-05-14T22:28:24.806Z,16.27
2018-05-14T22:30:53.073Z,15.77
2018-05-14T22:33:21.362Z,17.20
2018-05-14T22:35:49.633Z,17.80
2018-05-14T22:38:17.142Z,14.03
2018-05-14T22:40:44.618Z,15.40
2018-05-14T22:43:12.140Z,15.93
2018-05-14T22:45:39.606Z,25.33
2018-05-14T22:48:07.125Z,20.60
2018-05-14T22:50:35.372Z,18.17
2018-05-14T22:53:02.888Z,20.60
2018-05-14T22:55:30.425Z,16.83
2018-05-14T22:57:57.939Z,16.47
2018-05-14T23:00:27.283Z,17.63
2018-05-14T23:02:55.553Z,22.60
2018-05-14T23:05:23.794Z,17.10
2018-05-14T23:07:51.314Z,15.10
2018-05-14T23:10:18.810Z,13.30
2018-05-14T23:12:46.292Z,16.10
2018-05-14T23:15:14.573Z,13.60
2018-05-14T23:17:42.808Z,12.67
2018-05-14T23:20:10.306Z,11.43
2018-05-14T23:22:41.401Z,13.50
2018-05-14T23:25:08.901Z,13.90
2018-05-14T23:27:36.372Z,12.07
2018-05-14T23:30:04.649Z,11.20
2018-05-14T23:32:32.913Z,10.30
2018-05-14T23:35:00.420Z,8.63
2018-05-14T23:37:27.901Z,10.83
2018-05-14T23:39:55.368Z,10.47
2018-05-14T23:42:22.854Z,12.20
2018-05-14T23:44:51.096Z,10.27
2018-05-14T23:47:18.596Z,9.00
2018-05-14T23:49:46.842Z,9.33
2018-05-14T23:52:14.358Z,8.70
2018-05-14T23:54:41.831Z,8.37
2018-05-14T23:57:09.329Z,9.27
2018-05-14T23:59:36.829Z,7.03
